createdAt,value
2018-03-22T00:00:31.212Z,0.00
2018-03-22T00:02:24.094Z,0.00
2018-03-22T00:03:24.070Z,0.00
2018-03-22T00:05:16.947Z,0.00
2018-03-22T00:06:16.919Z,0.00
2018-03-22T00:08:09.794Z,0.00
2018-03-22T00:09:09.764Z,0.00
2018-03-22T00:11:02.661Z,0.00
2018-03-22T00:12:02.611Z,0.00
2018-03-22T00:13:55.486Z,0.00
2018-03-22T00:14:55.458Z,0.00
2018-03-22T00:16:48.341Z,0.00
2018-03-22T00:17:48.305Z,0.00
2018-03-22T00:19:41.190Z,0.00
2018-03-22T00:20:41.153Z,0.00
2018-03-22T00:22:34.048Z,0.00
2018-03-22T00:23:34.001Z,0.00
2018-03-22T00:25:26.891Z,0.00
2018-03-22T00:26:26.850Z,0.00
2018-03-22T00:28:19.743Z,0.00
2018-03-22T00:29:19.709Z,0.00
2018-03-22T00:31:12.599Z,0.00
2018-03-22T00:32:12.557Z,0.00
2018-03-22T00:34:05.942Z,0.00
2018-03-22T00:35:05.899Z,0.00
2018-03-22T00:36:58.788Z,0.00
2018-03-22T00:37:58.755Z,0.00
2018-03-22T00:39:51.635Z,0.00
2018-03-22T00:40:51.600Z,0.00
2018-03-22T00:42:44.469Z,0.00
2018-03-22T00:43:44.440Z,0.00
2018-03-22T00:45:37.323Z,0.00
2018-03-22T00:46:37.290Z,0.00
2018-03-22T00:48:30.188Z,0.00
2018-03-22T00:49:30.150Z,0.00
2018-03-22T00:51:23.031Z,0.00
2018-03-22T00:52:22.995Z,0.00
2018-03-22T00:54:16.360Z,0.00
2018-03-22T00:55:16.344Z,0.00
2018-03-22T00:57:09.216Z,0.00
2018-03-22T00:58:09.184Z,0.00
2018-03-22T01:00:02.072Z,0.00
2018-03-22T01:01:02.033Z,0.00
2018-03-22T01:02:54.913Z,0.00
2018-03-22T01:03:54.883Z,0.00
2018-03-22T01:05:47.749Z,0.00
2018-03-22T01:06:47.725Z,0.00
2018-03-22T01:08:41.233Z,0.00
2018-03-22T01:09:40.579Z,0.00
2018-03-22T01:11:33.481Z,0.00
2018-03-22T01:12:33.428Z,0.00
2018-03-22T01:14:26.305Z,0.00
2018-03-22T01:15:26.275Z,0.00
2018-03-22T01:17:19.157Z,0.00
2018-03-22T01:18:19.128Z,0.00
2018-03-22T01:20:12.061Z,0.00
2018-03-22T01:21:11.979Z,0.00
2018-03-22T01:23:04.908Z,0.00
2018-03-22T01:24:04.839Z,0.00
2018-03-22T01:25:57.791Z,0.00
2018-03-22T01:26:57.689Z,0.00
2018-03-22T01:28:50.575Z,0.00
2018-03-22T01:29:50.540Z,0.00
2018-03-22T01:31:43.504Z,0.00
2018-03-22T01:32:43.400Z,0.00
2018-03-22T01:34:36.379Z,0.00
2018-03-22T01:35:36.257Z,0.00
2018-03-22T01:37:29.140Z,0.00
2018-03-22T01:38:29.098Z,0.00
2018-03-22T01:40:22.061Z,0.00
2018-03-22T01:41:21.944Z,0.00
2018-03-22T01:43:14.819Z,0.00
2018-03-22T01:44:14.796Z,0.00
2018-03-22T01:46:07.667Z,0.00
2018-03-22T01:47:07.639Z,0.00
2018-03-22T01:49:00.518Z,0.00
2018-03-22T01:50:00.490Z,0.00
2018-03-22T01:51:53.444Z,0.00
2018-03-22T01:52:53.342Z,0.00
2018-03-22T01:54:46.211Z,0.00
2018-03-22T01:55:46.191Z,0.00
2018-03-22T01:57:39.073Z,0.00
2018-03-22T01:58:39.048Z,0.00
2018-03-22T02:00:32.418Z,0.00
2018-03-22T02:01:32.387Z,0.00
2018-03-22T02:03:25.275Z,0.00
2018-03-22T02:04:25.227Z,0.00
2018-03-22T02:06:18.118Z,0.00
2018-03-22T02:07:18.074Z,0.00
2018-03-22T02:09:11.015Z,0.00
2018-03-22T02:10:10.939Z,0.00
2018-03-22T02:12:03.807Z,0.00
2018-03-22T02:13:03.783Z,0.00
2018-03-22T02:14:57.158Z,0.00
2018-03-22T02:15:57.125Z,0.00
2018-03-22T02:17:50.029Z,0.00
2018-03-22T02:18:49.999Z,0.00
2018-03-22T02:20:42.866Z,0.00
2018-03-22T02:21:42.825Z,0.00
2018-03-22T02:23:35.727Z,0.00
2018-03-22T02:24:35.672Z,0.00
2018-03-22T02:26:28.559Z,0.00
2018-03-22T02:27:28.531Z,0.00
2018-03-22T02:29:21.408Z,0.00
2018-03-22T02:30:21.377Z,0.00
2018-03-22T02:32:14.261Z,0.00
2018-03-22T02:33:14.225Z,0.00
2018-03-22T02:35:07.134Z,0.00
2018-03-22T02:36:07.074Z,0.00
2018-03-22T02:37:59.966Z,0.00
2018-03-22T02:38:59.939Z,0.00
2018-03-22T02:40:52.839Z,0.00
2018-03-22T02:41:52.781Z,0.00
2018-03-22T02:43:46.197Z,0.00
2018-03-22T02:44:46.141Z,0.00
2018-03-22T02:46:39.055Z,0.00
2018-03-22T02:47:38.982Z,0.00
2018-03-22T02:49:31.878Z,0.00
2018-03-22T02:50:31.830Z,0.00
2018-03-22T02:52:24.718Z,0.00
2018-03-22T02:53:24.689Z,0.00
2018-03-22T02:55:17.588Z,0.00
2018-03-22T02:56:17.551Z,0.00
2018-03-22T02:58:10.431Z,0.00
2018-03-22T02:59:10.398Z,0.00
2018-03-22T03:01:03.288Z,0.00
2018-03-22T03:02:03.252Z,0.00
2018-03-22T03:03:56.138Z,0.00
2018-03-22T03:04:56.109Z,0.00
2018-03-22T03:06:48.990Z,0.00
2018-03-22T03:07:48.956Z,0.00
2018-03-22T03:09:41.830Z,0.00
2018-03-22T03:10:41.803Z,0.00
2018-03-22T03:12:34.690Z,0.00
2018-03-22T03:13:34.656Z,0.00
2018-03-22T03:15:27.564Z,0.00
2018-03-22T03:16:27.507Z,0.00
2018-03-22T03:18:20.396Z,0.00
2018-03-22T03:19:20.388Z,0.00
2018-03-22T03:21:13.743Z,0.00
2018-03-22T03:22:13.705Z,0.00
2018-03-22T03:24:07.077Z,0.00
2018-03-22T03:25:07.052Z,0.00
2018-03-22T03:26:59.939Z,0.00
2018-03-22T03:27:59.908Z,0.00
2018-03-22T03:29:53.359Z,0.00
2018-03-22T03:30:52.751Z,0.00
2018-03-22T03:32:45.678Z,0.00
2018-03-22T03:33:45.600Z,0.00
2018-03-22T03:35:38.987Z,0.00
2018-03-22T03:36:38.953Z,0.00
2018-03-22T03:38:31.834Z,0.00
2018-03-22T03:39:31.805Z,0.00
2018-03-22T03:41:24.729Z,0.00
2018-03-22T03:42:24.686Z,0.00
2018-03-22T03:44:17.641Z,0.00
2018-03-22T03:45:17.533Z,0.00
2018-03-22T03:47:10.416Z,0.00
2018-03-22T03:48:10.407Z,0.00
2018-03-22T03:50:03.755Z,0.00
2018-03-22T03:51:03.726Z,0.00
2018-03-22T03:52:56.604Z,0.00
2018-03-22T03:53:56.588Z,0.00
2018-03-22T03:55:49.954Z,0.00
2018-03-22T03:56:49.923Z,0.00
2018-03-22T03:58:42.809Z,0.00
2018-03-22T03:59:42.777Z,0.00
2018-03-22T04:01:35.662Z,0.00
2018-03-22T04:02:35.648Z,0.00
2018-03-22T04:04:29.019Z,0.00
2018-03-22T04:05:28.996Z,0.00
2018-03-22T04:07:21.877Z,0.00
2018-03-22T04:08:21.844Z,0.00
2018-03-22T04:10:14.720Z,0.00
2018-03-22T04:11:14.689Z,0.00
2018-03-22T04:13:07.570Z,0.00
2018-03-22T04:14:07.542Z,0.00
2018-03-22T04:16:00.912Z,0.00
2018-03-22T04:17:00.887Z,0.00
2018-03-22T04:18:53.774Z,0.00
2018-03-22T04:19:53.737Z,0.00
2018-03-22T04:21:46.624Z,0.00
2018-03-22T04:22:46.585Z,0.00
2018-03-22T04:24:39.478Z,0.00
2018-03-22T04:25:39.439Z,0.00
2018-03-22T04:27:32.338Z,0.00
2018-03-22T04:28:32.295Z,0.00
2018-03-22T04:30:25.756Z,0.00
2018-03-22T04:31:25.146Z,0.00
2018-03-22T04:33:18.033Z,0.00
2018-03-22T04:34:18.000Z,0.00
2018-03-22T04:36:10.879Z,0.00
2018-03-22T04:37:10.849Z,0.00
2018-03-22T04:39:04.309Z,0.00
2018-03-22T04:40:03.700Z,0.00
2018-03-22T04:41:57.080Z,0.00
2018-03-22T04:42:57.045Z,0.00
2018-03-22T04:44:49.935Z,0.00
2018-03-22T04:45:49.898Z,0.00
2018-03-22T04:47:42.859Z,0.00
2018-03-22T04:48:42.758Z,0.00
2018-03-22T04:50:35.719Z,0.00
2018-03-22T04:51:35.607Z,0.00
2018-03-22T04:53:28.489Z,0.00
2018-03-22T04:54:28.457Z,0.00
2018-03-22T04:56:21.345Z,0.00
2018-03-22T04:57:21.310Z,0.00
2018-03-22T04:59:14.201Z,0.00
2018-03-22T05:00:14.165Z,0.00
2018-03-22T05:02:07.044Z,0.00
2018-03-22T05:03:07.019Z,0.00
2018-03-22T05:04:59.903Z,0.00
2018-03-22T05:05:59.867Z,0.00
2018-03-22T05:07:52.750Z,4.00
2018-03-22T05:08:52.720Z,0.00
2018-03-22T05:10:45.608Z,4.00
2018-03-22T05:11:45.576Z,4.00
2018-03-22T05:13:38.460Z,4.00
2018-03-22T05:14:38.430Z,8.00
2018-03-22T05:16:31.322Z,8.00
2018-03-22T05:17:31.285Z,8.00
2018-03-22T05:19:24.171Z,8.00
2018-03-22T05:20:24.137Z,12.00
2018-03-22T05:22:17.030Z,12.00
2018-03-22T05:23:17.011Z,12.00
2018-03-22T05:25:10.371Z,16.00
2018-03-22T05:26:10.354Z,16.00
2018-03-22T05:28:03.236Z,24.00
2018-03-22T05:29:03.205Z,24.00
2018-03-22T05:30:56.083Z,28.00
2018-03-22T05:31:56.051Z,28.00
2018-03-22T05:33:49.428Z,32.00
2018-03-22T05:34:49.397Z,36.00
2018-03-22T05:36:42.283Z,44.00
2018-03-22T05:37:42.249Z,48.00
2018-03-22T05:39:35.711Z,56.00
2018-03-22T05:40:35.598Z,56.00
2018-03-22T05:42:28.489Z,56.00
2018-03-22T05:43:28.467Z,60.00
2018-03-22T05:45:21.340Z,68.00
2018-03-22T05:46:21.308Z,72.00
2018-03-22T05:48:14.679Z,80.00
2018-03-22T05:49:14.662Z,84.00
2018-03-22T05:51:07.545Z,96.00
2018-03-22T05:52:07.527Z,104.00
2018-03-22T05:54:00.389Z,124.00
2018-03-22T05:55:00.367Z,136.00
2018-03-22T05:56:53.248Z,160.00
2018-03-22T05:57:53.224Z,160.00
2018-03-22T05:59:46.819Z,192.00
2018-03-22T06:00:46.573Z,208.00
2018-03-22T06:02:39.466Z,252.00
2018-03-22T06:03:39.447Z,268.00
2018-03-22T06:05:32.303Z,300.00
2018-03-22T06:06:32.518Z,316.00
2018-03-22T06:08:26.033Z,344.00
2018-03-22T06:09:26.002Z,364.00
2018-03-22T06:11:18.878Z,452.00
2018-03-22T06:12:18.997Z,496.00
2018-03-22T06:14:12.353Z,624.00
2018-03-22T06:15:12.183Z,688.00
2018-03-22T06:17:05.237Z,780.00
2018-03-22T06:18:05.013Z,784.00
2018-03-22T06:19:57.903Z,812.00
2018-03-22T06:20:57.866Z,796.00
2018-03-22T06:22:50.824Z,696.00
2018-03-22T06:23:50.737Z,704.00
2018-03-22T06:25:44.999Z,820.00
2018-03-22T06:26:44.924Z,880.00
2018-03-22T06:28:37.843Z,996.00
2018-03-22T06:29:37.779Z,1032.00
2018-03-22T06:31:30.730Z,1000.00
2018-03-22T06:32:30.690Z,960.00
2018-03-22T06:34:23.577Z,852.00
2018-03-22T06:35:23.537Z,808.00
2018-03-22T06:37:16.440Z,756.00
2018-03-22T06:38:16.415Z,716.00
2018-03-22T06:40:09.309Z,588.00
2018-03-22T06:41:09.252Z,524.00
2018-03-22T06:43:02.185Z,376.00
2018-03-22T06:44:02.124Z,380.00
2018-03-22T06:45:55.482Z,364.00
2018-03-22T06:46:55.466Z,348.00
2018-03-22T06:48:48.375Z,348.00
2018-03-22T06:49:48.995Z,320.00
2018-03-22T06:51:41.708Z,312.00
2018-03-22T06:52:42.706Z,332.00
2018-03-22T06:54:34.558Z,344.00
2018-03-22T06:55:34.525Z,364.00
2018-03-22T06:57:27.417Z,384.00
2018-03-22T06:58:27.390Z,364.00
2018-03-22T07:00:20.783Z,388.00
2018-03-22T07:01:20.758Z,412.00
2018-03-22T07:03:14.159Z,420.00
2018-03-22T07:04:14.125Z,448.00
2018-03-22T07:06:07.505Z,496.00
2018-03-22T07:07:07.479Z,532.00
2018-03-22T07:09:00.369Z,656.00
2018-03-22T07:10:00.329Z,664.00
2018-03-22T07:11:53.713Z,744.00
2018-03-22T07:12:53.677Z,836.00
2018-03-22T07:14:46.559Z,964.00
2018-03-22T07:15:46.530Z,1016.00
2018-03-22T07:17:39.914Z,964.00
2018-03-22T07:18:39.885Z,960.00
2018-03-22T07:20:33.351Z,840.00
2018-03-22T07:21:32.738Z,796.00
2018-03-22T07:23:25.635Z,800.00
2018-03-22T07:24:25.642Z,832.00
2018-03-22T07:26:18.499Z,928.00
2018-03-22T07:27:18.464Z,948.00
2018-03-22T07:29:11.844Z,816.00
2018-03-22T07:30:11.804Z,752.00
2018-03-22T07:32:04.694Z,700.00
2018-03-22T07:33:04.667Z,648.00
2018-03-22T07:34:57.548Z,588.00
2018-03-22T07:35:57.519Z,576.00
2018-03-22T07:37:50.404Z,560.00
2018-03-22T07:38:50.373Z,516.00
2018-03-22T07:40:43.263Z,484.00
2018-03-22T07:41:43.229Z,508.00
2018-03-22T07:43:36.127Z,600.00
2018-03-22T07:44:36.092Z,636.00
2018-03-22T07:46:28.974Z,732.00
2018-03-22T07:47:28.941Z,820.00
2018-03-22T07:49:21.835Z,844.00
2018-03-22T07:50:21.796Z,940.00
2018-03-22T07:52:14.692Z,1016.00
2018-03-22T07:53:14.658Z,1036.00
2018-03-22T07:55:07.547Z,1140.00
2018-03-22T07:56:07.519Z,1132.00
2018-03-22T07:58:00.400Z,1112.00
2018-03-22T07:59:00.379Z,1148.00
2018-03-22T08:00:53.279Z,1336.00
2018-03-22T08:01:53.224Z,1676.00
2018-03-22T08:03:46.600Z,1964.00
2018-03-22T08:04:46.569Z,1768.00
2018-03-22T08:06:39.463Z,1532.00
2018-03-22T08:07:39.420Z,1464.00
2018-03-22T08:09:32.320Z,1444.00
2018-03-22T08:10:32.277Z,1400.00
2018-03-22T08:12:25.712Z,1448.00
2018-03-22T08:13:25.633Z,1544.00
2018-03-22T08:15:18.999Z,1328.00
2018-03-22T08:16:18.967Z,1304.00
2018-03-22T08:18:11.861Z,1320.00
2018-03-22T08:19:11.822Z,1312.00
2018-03-22T08:21:04.709Z,1480.00
2018-03-22T08:22:04.673Z,1500.00
2018-03-22T08:23:57.592Z,1592.00
2018-03-22T08:24:57.549Z,1768.00
2018-03-22T08:26:50.912Z,1992.00
2018-03-22T08:27:50.881Z,2064.00
2018-03-22T08:29:43.771Z,2016.00
2018-03-22T08:30:43.738Z,2036.00
2018-03-22T08:32:37.166Z,1824.00
2018-03-22T08:33:37.094Z,1872.00
2018-03-22T08:35:29.986Z,2348.00
2018-03-22T08:36:29.954Z,2124.00
2018-03-22T08:38:22.858Z,2088.00
2018-03-22T08:39:22.828Z,2200.00
2018-03-22T08:41:15.775Z,2244.00
2018-03-22T08:42:15.693Z,1952.00
2018-03-22T08:44:09.069Z,1788.00
2018-03-22T08:45:09.040Z,1688.00
2018-03-22T08:47:01.915Z,1612.00
2018-03-22T08:48:01.898Z,1604.00
2018-03-22T08:49:54.782Z,1304.00
2018-03-22T08:50:54.750Z,1200.00
2018-03-22T08:52:47.635Z,1544.00
2018-03-22T08:53:47.621Z,1748.00
2018-03-22T08:55:40.990Z,2144.00
2018-03-22T08:56:40.948Z,1976.00
2018-03-22T08:58:33.836Z,1960.00
2018-03-22T08:59:33.803Z,1820.00
2018-03-22T09:01:26.698Z,1608.00
2018-03-22T09:02:26.668Z,1800.00
2018-03-22T09:04:20.049Z,2104.00
2018-03-22T09:05:20.031Z,2364.00
2018-03-22T09:07:12.913Z,2808.00
2018-03-22T09:08:12.882Z,3008.00
2018-03-22T09:10:05.760Z,3024.00
2018-03-22T09:11:05.732Z,2680.00
2018-03-22T09:12:59.112Z,3036.00
2018-03-22T09:13:59.078Z,3072.00
2018-03-22T09:15:52.452Z,2580.00
2018-03-22T09:16:52.424Z,2488.00
2018-03-22T09:18:45.807Z,2384.00
2018-03-22T09:19:45.776Z,2236.00
2018-03-22T09:21:38.666Z,2104.00
2018-03-22T09:22:38.633Z,2104.00
2018-03-22T09:24:31.520Z,2016.00
2018-03-22T09:25:31.486Z,2024.00
2018-03-22T09:27:24.363Z,1908.00
2018-03-22T09:28:24.355Z,1888.00
2018-03-22T09:30:17.241Z,1952.00
2018-03-22T09:31:17.227Z,2100.00
2018-03-22T09:33:10.571Z,2292.00
2018-03-22T09:34:10.545Z,2540.00
2018-03-22T09:36:03.433Z,2028.00
2018-03-22T09:37:03.406Z,2108.00
2018-03-22T09:38:56.788Z,2268.00
2018-03-22T09:39:56.754Z,1776.00
2018-03-22T09:41:49.747Z,2188.00
2018-03-22T09:42:49.605Z,2120.00
2018-03-22T09:44:43.000Z,1936.00
2018-03-22T09:45:42.963Z,1844.00
2018-03-22T09:47:35.839Z,1804.00
2018-03-22T09:48:35.819Z,1624.00
2018-03-22T09:50:29.192Z,1696.00
2018-03-22T09:51:29.163Z,1832.00
2018-03-22T09:53:22.114Z,1720.00
2018-03-22T09:54:22.024Z,1652.00
2018-03-22T09:56:14.909Z,1592.00
2018-03-22T09:57:14.887Z,1380.00
2018-03-22T09:59:08.324Z,1396.00
2018-03-22T10:00:08.242Z,1272.00
2018-03-22T10:02:01.152Z,1200.00
2018-03-22T10:03:01.132Z,1232.00
2018-03-22T10:04:53.996Z,1468.00
2018-03-22T10:05:53.964Z,1368.00
2018-03-22T10:07:46.850Z,1180.00
2018-03-22T10:08:46.830Z,1344.00
2018-03-22T10:10:39.706Z,1436.00
2018-03-22T10:11:39.672Z,1496.00
2018-03-22T10:13:32.563Z,2288.00
2018-03-22T10:14:32.541Z,1848.00
2018-03-22T10:16:26.055Z,1728.00
2018-03-22T10:17:25.933Z,1704.00
2018-03-22T10:19:18.800Z,1360.00
2018-03-22T10:20:18.770Z,1276.00
2018-03-22T10:22:11.666Z,1316.00
2018-03-22T10:23:11.635Z,1188.00
2018-03-22T10:25:04.511Z,1164.00
2018-03-22T10:26:04.534Z,1248.00
2018-03-22T10:27:57.387Z,1156.00
2018-03-22T10:28:57.362Z,1288.00
2018-03-22T10:30:50.337Z,1292.00
2018-03-22T10:31:50.305Z,1196.00
2018-03-22T10:33:43.194Z,1208.00
2018-03-22T10:34:43.158Z,1180.00
2018-03-22T10:36:36.082Z,1100.00
2018-03-22T10:37:36.020Z,1284.00
2018-03-22T10:39:28.902Z,1688.00
2018-03-22T10:40:28.879Z,1948.00
2018-03-22T10:42:21.875Z,1520.00
2018-03-22T10:43:21.846Z,1632.00
2018-03-22T10:45:14.794Z,1756.00
2018-03-22T10:46:14.702Z,1628.00
2018-03-22T10:48:07.675Z,1992.00
2018-03-22T10:49:07.565Z,1944.00
2018-03-22T10:51:00.965Z,1676.00
2018-03-22T10:52:00.919Z,1472.00
2018-03-22T10:53:53.852Z,1556.00
2018-03-22T10:54:53.783Z,1688.00
2018-03-22T10:56:47.164Z,1660.00
2018-03-22T10:57:47.125Z,1776.00
2018-03-22T10:59:40.173Z,2508.00
2018-03-22T11:00:39.985Z,2528.00
2018-03-22T11:02:33.367Z,1964.00
2018-03-22T11:03:33.335Z,2160.00
2018-03-22T11:05:26.269Z,2356.00
2018-03-22T11:06:26.199Z,2412.00
2018-03-22T11:08:19.086Z,2096.00
2018-03-22T11:09:19.052Z,2096.00
2018-03-22T11:11:11.942Z,2172.00
2018-03-22T11:12:11.909Z,2464.00
2018-03-22T11:14:04.800Z,2396.00
2018-03-22T11:15:04.780Z,2148.00
2018-03-22T11:16:57.669Z,2120.00
2018-03-22T11:17:57.664Z,2124.00
2018-03-22T11:19:50.565Z,2212.00
2018-03-22T11:20:50.495Z,2792.00
2018-03-22T11:22:43.377Z,2116.00
2018-03-22T11:23:43.349Z,2260.00
2018-03-22T11:25:36.741Z,1960.00
2018-03-22T11:26:36.709Z,2300.00
2018-03-22T11:28:29.612Z,2120.00
2018-03-22T11:29:29.563Z,2160.00
2018-03-22T11:31:22.441Z,1944.00
2018-03-22T11:32:22.415Z,2028.00
2018-03-22T11:34:15.388Z,1976.00
2018-03-22T11:35:15.278Z,1752.00
2018-03-22T11:37:08.162Z,2320.00
2018-03-22T11:38:08.145Z,2400.00
2018-03-22T11:40:01.519Z,2664.00
2018-03-22T11:41:01.488Z,2328.00
2018-03-22T11:42:54.375Z,3068.00
2018-03-22T11:43:54.349Z,3460.00
2018-03-22T11:45:47.229Z,3116.00
2018-03-22T11:46:47.204Z,3092.00
2018-03-22T11:48:40.583Z,3688.00
2018-03-22T11:49:40.546Z,3428.00
2018-03-22T11:51:33.449Z,3244.00
2018-03-22T11:52:33.419Z,3112.00
2018-03-22T11:54:26.402Z,3228.00
2018-03-22T11:55:26.277Z,3200.00
2018-03-22T11:57:19.160Z,4064.00
2018-03-22T11:58:19.132Z,3196.00
2018-03-22T12:00:12.017Z,3552.00
2018-03-22T12:01:11.983Z,4376.00
2018-03-22T12:03:05.418Z,4156.00
2018-03-22T12:04:05.343Z,4144.00
2018-03-22T12:05:58.228Z,3824.00
2018-03-22T12:06:58.196Z,3244.00
2018-03-22T12:08:51.585Z,2752.00
2018-03-22T12:09:51.561Z,2096.00
2018-03-22T12:11:44.937Z,2248.00
2018-03-22T12:12:44.912Z,1948.00
2018-03-22T12:14:38.302Z,2352.00
2018-03-22T12:15:38.260Z,2436.00
2018-03-22T12:17:31.146Z,2028.00
2018-03-22T12:18:31.125Z,2324.00
2018-03-22T12:20:24.013Z,2188.00
2018-03-22T12:21:23.987Z,2156.00
2018-03-22T12:23:16.916Z,2116.00
2018-03-22T12:24:16.859Z,2208.00
2018-03-22T12:26:09.745Z,1848.00
2018-03-22T12:27:09.714Z,1872.00
2018-03-22T12:29:02.626Z,2048.00
2018-03-22T12:30:02.601Z,2028.00
2018-03-22T12:31:55.495Z,2092.00
2018-03-22T12:32:55.472Z,2016.00
2018-03-22T12:34:48.353Z,1876.00
2018-03-22T12:35:48.318Z,1644.00
2018-03-22T12:37:41.216Z,2036.00
2018-03-22T12:38:41.197Z,2212.00
2018-03-22T12:40:35.157Z,2400.00
2018-03-22T12:41:34.541Z,2544.00
2018-03-22T12:43:27.441Z,2868.00
2018-03-22T12:44:27.400Z,2588.00
2018-03-22T12:46:20.305Z,2160.00
2018-03-22T12:47:20.261Z,2392.00
2018-03-22T12:49:13.141Z,1944.00
2018-03-22T12:50:13.154Z,1932.00
2018-03-22T12:52:06.012Z,1872.00
2018-03-22T12:53:05.979Z,1896.00
2018-03-22T12:54:59.362Z,1728.00
2018-03-22T12:55:59.344Z,1824.00
2018-03-22T12:57:52.733Z,1808.00
2018-03-22T12:58:52.717Z,1756.00
2018-03-22T13:00:45.603Z,2044.00
2018-03-22T13:01:45.562Z,3008.00
2018-03-22T13:03:38.979Z,3164.00
2018-03-22T13:04:38.913Z,3020.00
2018-03-22T13:06:31.815Z,2648.00
2018-03-22T13:07:31.784Z,2164.00
2018-03-22T13:09:24.659Z,1828.00
2018-03-22T13:10:24.627Z,1820.00
2018-03-22T13:12:17.529Z,1712.00
2018-03-22T13:13:17.491Z,1752.00
2018-03-22T13:15:10.379Z,1828.00
2018-03-22T13:16:10.343Z,1768.00
2018-03-22T13:18:03.234Z,2040.00
2018-03-22T13:19:03.206Z,2072.00
2018-03-22T13:20:56.592Z,2104.00
2018-03-22T13:21:56.567Z,2012.00
2018-03-22T13:23:49.453Z,1876.00
2018-03-22T13:24:49.432Z,1772.00
2018-03-22T13:26:42.341Z,1748.00
2018-03-22T13:27:42.286Z,1364.00
2018-03-22T13:29:35.669Z,1668.00
2018-03-22T13:30:35.639Z,1680.00
2018-03-22T13:32:28.552Z,1804.00
2018-03-22T13:33:29.078Z,1568.00
2018-03-22T13:35:21.391Z,1728.00
2018-03-22T13:36:21.368Z,1992.00
2018-03-22T13:38:14.249Z,1828.00
2018-03-22T13:39:14.224Z,1864.00
2018-03-22T13:41:07.200Z,1960.00
2018-03-22T13:42:07.091Z,2144.00
2018-03-22T13:44:00.479Z,2092.00
2018-03-22T13:45:00.465Z,2176.00
2018-03-22T13:46:53.364Z,2300.00
2018-03-22T13:47:53.314Z,2552.00
2018-03-22T13:49:46.208Z,1900.00
2018-03-22T13:50:46.176Z,1700.00
2018-03-22T13:52:39.594Z,1556.00
2018-03-22T13:53:39.527Z,1656.00
2018-03-22T13:55:32.420Z,1992.00
2018-03-22T13:56:32.398Z,1820.00
2018-03-22T13:58:25.772Z,1932.00
2018-03-22T13:59:25.748Z,1904.00
2018-03-22T14:01:19.160Z,1812.00
2018-03-22T14:02:19.099Z,1776.00
2018-03-22T14:04:11.990Z,1812.00
2018-03-22T14:05:11.956Z,1628.00
2018-03-22T14:07:05.367Z,1664.00
2018-03-22T14:08:05.307Z,1712.00
2018-03-22T14:09:58.220Z,1596.00
2018-03-22T14:10:58.176Z,1676.00
2018-03-22T14:12:51.135Z,1580.00
2018-03-22T14:13:51.048Z,1720.00
2018-03-22T14:15:43.983Z,2032.00
2018-03-22T14:16:43.912Z,1460.00
2018-03-22T14:18:37.290Z,1596.00
2018-03-22T14:19:37.263Z,1840.00
2018-03-22T14:21:30.143Z,2216.00
2018-03-22T14:22:30.119Z,1848.00
2018-03-22T14:24:23.014Z,1380.00
2018-03-22T14:25:22.985Z,1608.00
2018-03-22T14:27:15.864Z,1552.00
2018-03-22T14:28:15.839Z,1268.00
2018-03-22T14:30:08.730Z,1732.00
2018-03-22T14:31:08.700Z,2256.00
2018-03-22T14:33:01.596Z,1800.00
2018-03-22T14:34:01.565Z,1800.00
2018-03-22T14:35:54.944Z,1656.00
2018-03-22T14:36:54.914Z,1484.00
2018-03-22T14:38:48.313Z,1508.00
2018-03-22T14:39:48.264Z,1968.00
2018-03-22T14:41:41.150Z,2824.00
2018-03-22T14:42:41.128Z,4464.00
2018-03-22T14:44:34.016Z,4304.00
2018-03-22T14:45:33.986Z,4316.00
2018-03-22T14:47:26.997Z,3824.00
2018-03-22T14:48:26.966Z,4448.00
2018-03-22T14:50:19.860Z,4148.00
2018-03-22T14:51:19.830Z,4360.00
2018-03-22T14:53:12.712Z,3672.00
2018-03-22T14:54:12.688Z,3864.00
2018-03-22T14:56:05.595Z,3056.00
2018-03-22T14:57:05.559Z,2868.00
2018-03-22T14:58:58.954Z,2664.00
2018-03-22T14:59:58.912Z,2632.00
2018-03-22T15:01:51.920Z,2632.00
2018-03-22T15:02:51.777Z,3324.00
2018-03-22T15:04:44.668Z,3252.00
2018-03-22T15:05:44.632Z,3616.00
2018-03-22T15:07:37.535Z,3100.00
2018-03-22T15:08:37.505Z,3160.00
2018-03-22T15:10:30.435Z,2288.00
2018-03-22T15:11:30.361Z,2728.00
2018-03-22T15:13:23.742Z,2792.00
2018-03-22T15:14:23.718Z,2848.00
2018-03-22T15:16:16.703Z,3040.00
2018-03-22T15:17:16.688Z,2988.00
2018-03-22T15:19:09.596Z,2500.00
2018-03-22T15:20:09.542Z,2512.00
2018-03-22T15:22:02.465Z,2760.00
2018-03-22T15:23:02.420Z,2472.00
2018-03-22T15:24:55.306Z,1888.00
2018-03-22T15:25:55.291Z,1656.00
2018-03-22T15:27:48.166Z,1320.00
2018-03-22T15:28:48.136Z,1228.00
2018-03-22T15:30:41.529Z,1272.00
2018-03-22T15:31:41.491Z,1400.00
2018-03-22T15:33:34.390Z,1364.00
2018-03-22T15:34:34.374Z,1184.00
2018-03-22T15:36:27.256Z,1080.00
2018-03-22T15:37:27.338Z,1160.00
2018-03-22T15:39:20.609Z,1136.00
2018-03-22T15:40:20.574Z,1104.00
2018-03-22T15:42:13.478Z,1136.00
2018-03-22T15:43:13.446Z,1192.00
2018-03-22T15:45:06.904Z,1012.00
2018-03-22T15:46:06.341Z,944.00
2018-03-22T15:47:59.218Z,976.00
2018-03-22T15:48:59.203Z,1196.00
2018-03-22T15:50:52.101Z,1352.00
2018-03-22T15:51:52.060Z,1344.00
2018-03-22T15:53:46.477Z,1364.00
2018-03-22T15:54:46.429Z,1264.00
2018-03-22T15:56:39.302Z,1228.00
2018-03-22T15:57:39.290Z,1264.00
2018-03-22T15:59:32.171Z,1032.00
2018-03-22T16:00:32.167Z,1024.00
2018-03-22T16:02:25.031Z,928.00
2018-03-22T16:03:25.000Z,840.00
2018-03-22T16:05:17.921Z,868.00
2018-03-22T16:06:17.896Z,832.00
2018-03-22T16:08:10.771Z,736.00
2018-03-22T16:09:10.736Z,692.00
2018-03-22T16:11:03.624Z,652.00
2018-03-22T16:12:03.642Z,712.00
2018-03-22T16:13:56.979Z,864.00
2018-03-22T16:14:56.950Z,868.00
2018-03-22T16:16:50.326Z,920.00
2018-03-22T16:17:50.300Z,852.00
2018-03-22T16:19:43.192Z,624.00
2018-03-22T16:20:43.166Z,524.00
2018-03-22T16:22:36.063Z,452.00
2018-03-22T16:23:36.028Z,524.00
2018-03-22T16:25:28.907Z,512.00
2018-03-22T16:26:28.883Z,480.00
2018-03-22T16:28:21.777Z,420.00
2018-03-22T16:29:21.745Z,364.00
2018-03-22T16:31:14.684Z,264.00
2018-03-22T16:32:14.604Z,292.00
2018-03-22T16:34:07.490Z,340.00
2018-03-22T16:35:07.510Z,372.00
2018-03-22T16:37:00.351Z,416.00
2018-03-22T16:38:00.330Z,428.00
2018-03-22T16:39:53.212Z,428.00
2018-03-22T16:40:53.184Z,380.00
2018-03-22T16:42:46.582Z,392.00
2018-03-22T16:43:46.541Z,400.00
2018-03-22T16:45:39.935Z,336.00
2018-03-22T16:46:39.905Z,316.00
2018-03-22T16:48:32.849Z,360.00
2018-03-22T16:49:32.774Z,308.00
2018-03-22T16:51:25.647Z,264.00
2018-03-22T16:52:25.620Z,260.00
2018-03-22T16:54:18.608Z,228.00
2018-03-22T16:55:18.486Z,244.00
2018-03-22T16:57:11.412Z,208.00
2018-03-22T16:58:11.356Z,216.00
2018-03-22T17:00:04.810Z,212.00
2018-03-22T17:01:04.900Z,200.00
2018-03-22T17:02:57.618Z,164.00
2018-03-22T17:03:57.567Z,188.00
2018-03-22T17:05:50.436Z,252.00
2018-03-22T17:06:50.433Z,196.00
2018-03-22T17:08:44.392Z,204.00
2018-03-22T17:09:44.370Z,188.00
2018-03-22T17:11:37.308Z,220.00
2018-03-22T17:12:37.224Z,200.00
2018-03-22T17:14:30.116Z,188.00
2018-03-22T17:15:30.120Z,212.00
2018-03-22T17:17:22.969Z,192.00
2018-03-22T17:18:22.947Z,144.00
2018-03-22T17:20:15.859Z,172.00
2018-03-22T17:21:15.786Z,144.00
2018-03-22T17:23:09.172Z,180.00
2018-03-22T17:24:09.198Z,152.00
2018-03-22T17:26:02.586Z,184.00
2018-03-22T17:27:02.522Z,212.00
2018-03-22T17:28:55.959Z,240.00
2018-03-22T17:29:55.359Z,208.00
2018-03-22T17:31:48.300Z,164.00
2018-03-22T17:32:48.234Z,152.00
2018-03-22T17:34:41.183Z,140.00
2018-03-22T17:35:41.137Z,132.00
2018-03-22T17:37:34.080Z,128.00
2018-03-22T17:38:33.993Z,116.00
2018-03-22T17:40:27.442Z,92.00
2018-03-22T17:41:27.340Z,92.00
2018-03-22T17:43:20.502Z,80.00
2018-03-22T17:44:20.216Z,68.00
2018-03-22T17:46:13.122Z,52.00
2018-03-22T17:47:13.076Z,40.00
2018-03-22T17:49:06.026Z,36.00
2018-03-22T17:50:05.936Z,32.00
2018-03-22T17:51:59.325Z,28.00
2018-03-22T17:52:59.284Z,24.00
2018-03-22T17:54:52.277Z,16.00
2018-03-22T17:55:52.245Z,16.00
2018-03-22T17:57:45.216Z,12.00
2018-03-22T17:58:45.093Z,8.00
2018-03-22T18:00:39.054Z,8.00
2018-03-22T18:01:39.020Z,8.00
2018-03-22T18:03:31.914Z,4.00
2018-03-22T18:04:31.891Z,4.00
2018-03-22T18:06:24.774Z,0.00